sensor_id;sensor_type;location;lat;lon;timestamp;pressure;altitude;pressure_sealevel;temperature;humidity
25722;BME280;13578;53.450;15.496;2023-04-01T00:02:14;97752.50;;;8.33;100.00
25722;BME280;13578;53.450;15.496;2023-04-01T00:05:15;97759.16;;;8.39;100.00
25722;BME280;13578;53.450;15.496;2023-04-01T00:08:19;97753.34;;;8.34;100.00
25722;BME280;13578;53.450;15.496;2023-04-01T00:11:20;97759.00;;;8.32;100.00
25722;BME280;13578;53.450;15.496;2023-04-01T00:14:21;97748.75;;;8.34;100.00
25722;BME280;13578;53.450;15.496;2023-04-01T00:17:22;97752.50;;;8.33;100.00
25722;BME280;13578;53.450;15.496;2023-04-01T00:20:23;97748.94;;;8.33;100.00
25722;BME280;13578;53.450;15.496;2023-04-01T00:23:23;97757.97;;;8.41;100.00
25722;BME280;13578;53.450;15.496;2023-04-01T00:26:24;97748.38;;;8.46;100.00
25722;BME280;13578;53.450;15.496;2023-04-01T00:29:25;97756.59;;;8.37;100.00
25722;BME280;13578;53.450;15.496;2023-04-01T00:32:29;97748.56;;;8.36;100.00
25722;BME280;13578;53.450;15.496;2023-04-01T00:35:31;97747.88;;;8.42;100.00
25722;BME280;13578;53.450;15.496;2023-04-01T00:38:32;97748.75;;;8.34;100.00
25722;BME280;13578;53.450;15.496;2023-04-01T00:41:33;97754.75;;;8.30;100.00
25722;BME280;13578;53.450;15.496;2023-04-01T00:44:34;97751.16;;;8.29;100.00
25722;BME280;13578;53.450;15.496;2023-04-01T00:47:34;97749.47;;;8.28;100.00
25722;BME280;13578;53.450;15.496;2023-04-01T00:50:36;97744.50;;;8.32;100.00
25722;BME280;13578;53.450;15.496;2023-04-01T00:53:42;97745.84;;;8.27;100.00
25722;BME280;13578;53.450;15.496;2023-04-01T00:56:50;97751.16;;;8.29;100.00
25722;BME280;13578;53.450;15.496;2023-04-01T00:59:56;97752.84;;;8.30;100.00
25722;BME280;13578;53.450;15.496;2023-04-01T01:02:56;97741.25;;;8.28;100.00
25722;BME280;13578;53.450;15.496;2023-04-01T01:06:07;97750.63;;;8.34;100.00
25722;BME280;13578;53.450;15.496;2023-04-01T01:09:31;97747.72;;;8.35;100.00
25722;BME280;13578;53.450;15.496;2023-04-01T01:16:14;97742.09;;;8.29;100.00
25722;BME280;13578;53.450;15.496;2023-04-01T01:19:47;97748.25;;;8.31;100.00
25722;BME280;13578;53.450;15.496;2023-04-01T01:36:18;97770.63;;;7.43;100.00
25722;BME280;13578;53.450;15.496;2023-04-01T01:39:24;97773.47;;;7.25;100.00
25722;BME280;13578;53.450;15.496;2023-04-01T01:42:29;97773.28;;;7.10;100.00
25722;BME280;13578;53.450;15.496;2023-04-01T01:45:33;97784.47;;;6.99;100.00
25722;BME280;13578;53.450;15.496;2023-04-01T01:48:36;97782.06;;;6.88;100.00
25722;BME280;13578;53.450;15.496;2023-04-01T01:51:37;97775.16;;;6.67;100.00
25722;BME280;13578;53.450;15.496;2023-04-01T01:54:50;97776.66;;;6.61;100.00
25722;BME280;13578;53.450;15.496;2023-04-01T01:57:52;97780.22;;;6.62;100.00
25722;BME280;13578;53.450;15.496;2023-04-01T02:00:56;97781.03;;;6.54;100.00
25722;BME280;13578;53.450;15.496;2023-04-01T02:03:58;97790.53;;;6.42;100.00
25722;BME280;13578;53.450;15.496;2023-04-01T02:07:03;97783.84;;;6.36;100.00
25722;BME280;13578;53.450;15.496;2023-04-01T02:10:05;97791.66;;;6.31;100.00
25722;BME280;13578;53.450;15.496;2023-04-01T02:13:16;97788.69;;;6.24;100.00
25722;BME280;13578;53.450;15.496;2023-04-01T02:16:27;97788.38;;;6.27;100.00
25722;BME280;13578;53.450;15.496;2023-04-01T02:19:36;97790.28;;;6.09;100.00
25722;BME280;13578;53.450;15.496;2023-04-01T02:22:40;97790.81;;;6.12;100.00
25722;BME280;13578;53.450;15.496;2023-04-01T02:25:43;97796.75;;;6.08;100.00
25722;BME280;13578;53.450;15.496;2023-04-01T02:28:46;97799.28;;;5.91;100.00
25722;BME280;13578;53.450;15.496;2023-04-01T02:31:49;97794.97;;;5.80;100.00
25722;BME280;13578;53.450;15.496;2023-04-01T02:34:51;97802.75;;;5.75;100.00
25722;BME280;13578;53.450;15.496;2023-04-01T02:37:54;97805.63;;;5.73;100.00
25722;BME280;13578;53.450;15.496;2023-04-01T02:41:00;97803.06;;;5.72;100.00
25722;BME280;13578;53.450;15.496;2023-04-01T02:44:01;97810.44;;;5.80;100.00
25722;BME280;13578;53.450;15.496;2023-04-01T02:47:02;97811.47;;;5.61;100.00
25722;BME280;13578;53.450;15.496;2023-04-01T02:50:03;97808.72;;;5.61;100.00
25722;BME280;13578;53.450;15.496;2023-04-01T02:53:04;97812.47;;;5.60;100.00
25722;BME280;13578;53.450;15.496;2023-04-01T02:56:06;97825.78;;;5.63;100.00
25722;BME280;13578;53.450;15.496;2023-04-01T02:59:07;97819.41;;;5.54;100.00
25722;BME280;13578;53.450;15.496;2023-04-01T03:02:08;97815.50;;;5.56;100.00
25722;BME280;13578;53.450;15.496;2023-04-01T03:05:08;97822.41;;;5.51;100.00
25722;BME280;13578;53.450;15.496;2023-04-01T03:08:09;97835.31;;;5.49;100.00
25722;BME280;13578;53.450;15.496;2023-04-01T03:11:11;97830.28;;;5.36;100.00
25722;BME280;13578;53.450;15.496;2023-04-01T03:14:12;97830.28;;;5.36;100.00
25722;BME280;13578;53.450;15.496;2023-04-01T03:17:12;97825.41;;;5.30;100.00
25722;BME280;13578;53.450;15.496;2023-04-01T03:20:13;97836.28;;;5.30;100.00
25722;BME280;13578;53.450;15.496;2023-04-01T03:23:15;97837.16;;;5.30;100.00
25722;BME280;13578;53.450;15.496;2023-04-01T03:26:17;97836.75;;;5.25;100.00
25722;BME280;13578;53.450;15.496;2023-04-01T03:29:18;97841.50;;;5.23;100.00
25722;BME280;13578;53.450;15.496;2023-04-01T03:32:19;97845.94;;;5.24;100.00
25722;BME280;13578;53.450;15.496;2023-04-01T03:35:19;97844.41;;;5.12;100.00
25722;BME280;13578;53.450;15.496;2023-04-01T03:38:20;97850.56;;;5.14;100.00
25722;BME280;13578;53.450;15.496;2023-04-01T03:41:21;97846.69;;;5.16;100.00
25722;BME280;13578;53.450;15.496;2023-04-01T03:44:21;97860.72;;;5.12;100.00
25722;BME280;13578;53.450;15.496;2023-04-01T03:47:22;97865.16;;;5.13;100.00
25722;BME280;13578;53.450;15.496;2023-04-01T03:50:23;97868.50;;;5.06;100.00
25722;BME280;13578;53.450;15.496;2023-04-01T03:53:24;97860.22;;;4.98;100.00
25722;BME280;13578;53.450;15.496;2023-04-01T03:56:25;97878.25;;;4.99;100.00
25722;BME280;13578;53.450;15.496;2023-04-01T03:59:25;97878.00;;;4.92;100.00
25722;BME280;13578;53.450;15.496;2023-04-01T04:02:26;97875.28;;;4.92;100.00
25722;BME280;13578;53.450;15.496;2023-04-01T04:05:27;97882.03;;;4.88;100.00
25722;BME280;13578;53.450;15.496;2023-04-01T04:08:28;97880.91;;;4.81;100.00
25722;BME280;13578;53.450;15.496;2023-04-01T04:11:31;97878.19;;;4.81;100.00
25722;BME280;13578;53.450;15.496;2023-04-01T04:14:32;97885.47;;;4.90;100.00
25722;BME280;13578;53.450;15.496;2023-04-01T04:17:33;97887.66;;;4.77;100.00
25722;BME280;13578;53.450;15.496;2023-04-01T04:20:34;97892.22;;;4.76;100.00
25722;BME280;13578;53.450;15.496;2023-04-01T04:23:35;97898.94;;;4.82;100.00
25722;BME280;13578;53.450;15.496;2023-04-01T04:26:37;97902.81;;;4.80;100.00
25722;BME280;13578;53.450;15.496;2023-04-01T04:29:38;97902.09;;;4.77;100.00
25722;BME280;13578;53.450;15.496;2023-04-01T04:32:39;97917.41;;;4.79;100.00
25722;BME280;13578;53.450;15.496;2023-04-01T04:35:40;97921.16;;;4.68;100.00
25722;BME280;13578;53.450;15.496;2023-04-01T04:38:41;97918.72;;;4.65;100.00
25722;BME280;13578;53.450;15.496;2023-04-01T04:41:42;97918.13;;;4.71;100.00
25722;BME280;13578;53.450;15.496;2023-04-01T04:44:42;97927.31;;;4.70;100.00
25722;BME280;13578;53.450;15.496;2023-04-01T04:47:43;97931.00;;;4.69;100.00
25722;BME280;13578;53.450;15.496;2023-04-01T04:50:45;97926.03;;;4.54;100.00
25722;BME280;13578;53.450;15.496;2023-04-01T04:53:46;97941.47;;;4.54;100.00
25722;BME280;13578;53.450;15.496;2023-04-01T04:56:47;97943.63;;;4.50;100.00
25722;BME280;13578;53.450;15.496;2023-04-01T04:59:48;97946.06;;;4.53;100.00
25722;BME280;13578;53.450;15.496;2023-04-01T05:02:48;97944.31;;;4.62;100.00
25722;BME280;13578;53.450;15.496;2023-04-01T05:05:51;97951.84;;;4.88;100.00
25722;BME280;13578;53.450;15.496;2023-04-01T05:08:52;97955.75;;;4.66;100.00
25722;BME280;13578;53.450;15.496;2023-04-01T05:11:52;97964.06;;;4.54;100.00
25722;BME280;13578;53.450;15.496;2023-04-01T05:14:53;97958.91;;;4.61;100.00
25722;BME280;13578;53.450;15.496;2023-04-01T05:17:54;97966.22;;;4.51;100.00
25722;BME280;13578;53.450;15.496;2023-04-01T05:20:55;97977.09;;;4.51;100.00
25722;BME280;13578;53.450;15.496;2023-04-01T05:23:55;97975.63;;;4.56;100.00
25722;BME280;13578;53.450;15.496;2023-04-01T05:26:56;97973.81;;;4.47;100.00
25722;BME280;13578;53.450;15.496;2023-04-01T05:29:57;97973.50;;;4.50;100.00
25722;BME280;13578;53.450;15.496;2023-04-01T05:32:58;97976.94;;;4.42;100.00
25722;BME280;13578;53.450;15.496;2023-04-01T05:36:19;97979.94;;;4.49;100.00
25722;BME280;13578;53.450;15.496;2023-04-01T05:39:20;97972.94;;;4.47;100.00
25722;BME280;13578;53.450;15.496;2023-04-01T05:42:20;97978.78;;;4.42;100.00
25722;BME280;13578;53.450;15.496;2023-04-01T05:45:22;97987.38;;;4.47;100.00
25722;BME280;13578;53.450;15.496;2023-04-01T05:48:23;97989.22;;;4.37;100.00
25722;BME280;13578;53.450;15.496;2023-04-01T05:51:23;97996.09;;;4.41;100.00
25722;BME280;13578;53.450;15.496;2023-04-01T05:54:24;97996.53;;;4.46;100.00
25722;BME280;13578;53.450;15.496;2023-04-01T05:57:26;97987.50;;;4.55;100.00
25722;BME280;13578;53.450;15.496;2023-04-01T06:00:26;98002.78;;;4.56;100.00
25722;BME280;13578;53.450;15.496;2023-04-01T06:03:27;97999.66;;;4.61;100.00
25722;BME280;13578;53.450;15.496;2023-04-01T06:06:29;98003.38;;;4.50;100.00
25722;BME280;13578;53.450;15.496;2023-04-01T06:09:30;98005.66;;;4.55;100.00
25722;BME280;13578;53.450;15.496;2023-04-01T06:12:54;98011.09;;;4.55;100.00
25722;BME280;13578;53.450;15.496;2023-04-01T06:16:19;98016.97;;;4.50;100.00
25722;BME280;13578;53.450;15.496;2023-04-01T06:26:16;98037.84;;;4.59;100.00
25722;BME280;13578;53.450;15.496;2023-04-01T06:32:38;98042.25;;;4.80;100.00
25722;BME280;13578;53.450;15.496;2023-04-01T06:52:29;98064.56;;;4.74;100.00
25722;BME280;13578;53.450;15.496;2023-04-01T06:55:43;98073.44;;;4.76;100.00
25722;BME280;13578;53.450;15.496;2023-04-01T06:58:53;98076.28;;;4.74;100.00
25722;BME280;13578;53.450;15.496;2023-04-01T07:05:11;98076.88;;;4.58;100.00
25722;BME280;13578;53.450;15.496;2023-04-01T07:08:17;98082.88;;;4.62;100.00
25722;BME280;13578;53.450;15.496;2023-04-01T07:11:29;98081.16;;;4.71;100.00
25722;BME280;13578;53.450;15.496;2023-04-01T07:14:41;98089.75;;;4.66;100.00
25722;BME280;13578;53.450;15.496;2023-04-01T07:17:43;98090.44;;;4.78;100.00
25722;BME280;13578;53.450;15.496;2023-04-01T07:20:46;98093.19;;;4.68;100.00
25722;BME280;13578;53.450;15.496;2023-04-01T07:23:47;98106.75;;;4.68;100.00
25722;BME280;13578;53.450;15.496;2023-04-01T07:26:53;98104.34;;;4.75;100.00
25722;BME280;13578;53.450;15.496;2023-04-01T07:29:57;98112.06;;;4.70;100.00
25722;BME280;13578;53.450;15.496;2023-04-01T07:36:42;98122.66;;;4.73;100.00
25722;BME280;13578;53.450;15.496;2023-04-01T07:43:18;98137.53;;;4.88;100.00
25722;BME280;13578;53.450;15.496;2023-04-01T07:46:37;98137.53;;;4.69;100.00
25722;BME280;13578;53.450;15.496;2023-04-01T08:00:02;98145.38;;;4.82;100.00
25722;BME280;13578;53.450;15.496;2023-04-01T08:03:29;98161.41;;;4.85;100.00
25722;BME280;13578;53.450;15.496;2023-04-01T08:09:55;98170.00;;;4.70;100.00
25722;BME280;13578;53.450;15.496;2023-04-01T08:16:19;98169.41;;;4.76;100.00
25722;BME280;13578;53.450;15.496;2023-04-01T08:23:16;98185.47;;;4.80;100.00
25722;BME280;13578;53.450;15.496;2023-04-01T08:26:30;98183.31;;;4.73;100.00
25722;BME280;13578;53.450;15.496;2023-04-01T08:29:48;98188.44;;;4.86;100.00
25722;BME280;13578;53.450;15.496;2023-04-01T08:33:05;98196.75;;;4.95;100.00
25722;BME280;13578;53.450;15.496;2023-04-01T08:36:20;98212.81;;;4.98;100.00
25722;BME280;13578;53.450;15.496;2023-04-01T08:39:32;98207.94;;;4.91;100.00
25722;BME280;13578;53.450;15.496;2023-04-01T08:45:56;98213.22;;;5.13;100.00
25722;BME280;13578;53.450;15.496;2023-04-01T08:52:36;98222.53;;;5.10;100.00
25722;BME280;13578;53.450;15.496;2023-04-01T09:09:28;98252.44;;;5.30;100.00
25722;BME280;13578;53.450;15.496;2023-04-01T09:13:03;98260.75;;;5.28;100.00
25722;BME280;13578;53.450;15.496;2023-04-01T09:29:38;98276.97;;;5.49;100.00
25722;BME280;13578;53.450;15.496;2023-04-01T09:33:06;98277.97;;;5.48;100.00
25722;BME280;13578;53.450;15.496;2023-04-01T09:50:32;98307.00;;;5.28;100.00
25722;BME280;13578;53.450;15.496;2023-04-01T10:07:59;98322.31;;;5.19;100.00
25722;BME280;13578;53.450;15.496;2023-04-01T10:24:30;98343.25;;;5.29;100.00
25722;BME280;13578;53.450;15.496;2023-04-01T10:31:41;98345.66;;;5.22;100.00
25722;BME280;13578;53.450;15.496;2023-04-01T10:34:48;98359.41;;;5.20;100.00
25722;BME280;13578;53.450;15.496;2023-04-01T10:51:46;98371.03;;;5.42;100.00
25722;BME280;13578;53.450;15.496;2023-04-01T11:32:46;98428.88;;;5.03;100.00
25722;BME280;13578;53.450;15.496;2023-04-01T11:39:03;98422.50;;;4.83;100.00
25722;BME280;13578;53.450;15.496;2023-04-01T11:48:50;98441.47;;;5.04;100.00
25722;BME280;13578;53.450;15.496;2023-04-01T11:58:42;98450.84;;;5.21;100.00
25722;BME280;13578;53.450;15.496;2023-04-01T12:02:20;98462.47;;;5.23;100.00
25722;BME280;13578;53.450;15.496;2023-04-01T12:12:39;98463.44;;;5.22;100.00
25722;BME280;13578;53.450;15.496;2023-04-01T12:19:25;98465.53;;;5.09;100.00
25722;BME280;13578;53.450;15.496;2023-04-01T12:23:28;98472.34;;;4.93;100.00
25722;BME280;13578;53.450;15.496;2023-04-01T12:36:07;98494.03;;;5.05;100.00
25722;BME280;13578;53.450;15.496;2023-04-01T12:39:33;98491.91;;;5.08;100.00
25722;BME280;13578;53.450;15.496;2023-04-01T12:46:24;98500.50;;;5.14;100.00
25722;BME280;13578;53.450;15.496;2023-04-01T12:49:33;98503.38;;;5.12;100.00
25722;BME280;13578;53.450;15.496;2023-04-01T12:52:58;98507.34;;;5.08;100.00
25722;BME280;13578;53.450;15.496;2023-04-01T12:56:09;98517.91;;;5.01;100.00
25722;BME280;13578;53.450;15.496;2023-04-01T13:03:39;98516.78;;;4.61;100.00
25722;BME280;13578;53.450;15.496;2023-04-01T13:17:17;98530.16;;;4.53;100.00
25722;BME280;13578;53.450;15.496;2023-04-01T13:20:44;98540.34;;;4.40;100.00
25722;BME280;13578;53.450;15.496;2023-04-01T13:23:59;98540.13;;;4.32;100.00
25722;BME280;13578;53.450;15.496;2023-04-01T13:30:49;98553.66;;;4.43;100.00
25722;BME280;13578;53.450;15.496;2023-04-01T13:34:31;98559.41;;;4.28;100.00
25722;BME280;13578;53.450;15.496;2023-04-01T13:41:45;98565.59;;;4.52;100.00
25722;BME280;13578;53.450;15.496;2023-04-01T13:51:54;98572.22;;;4.26;100.00
25722;BME280;13578;53.450;15.496;2023-04-01T13:58:49;98582.25;;;4.26;100.00
25722;BME280;13578;53.450;15.496;2023-04-01T14:02:14;98582.09;;;4.39;100.00
25722;BME280;13578;53.450;15.496;2023-04-01T14:05:32;98603.59;;;4.31;100.00
25722;BME280;13578;53.450;15.496;2023-04-01T14:12:09;98605.38;;;3.97;100.00
25722;BME280;13578;53.450;15.496;2023-04-01T14:15:22;98590.47;;;3.92;100.00
25722;BME280;13578;53.450;15.496;2023-04-01T14:22:23;98604.53;;;3.97;100.00
25722;BME280;13578;53.450;15.496;2023-04-01T14:49:00;98639.31;;;3.80;100.00
25722;BME280;13578;53.450;15.496;2023-04-01T14:52:16;98641.44;;;3.77;100.00
25722;BME280;13578;53.450;15.496;2023-04-01T14:55:31;98646.50;;;3.70;100.00
25722;BME280;13578;53.450;15.496;2023-04-01T15:05:16;98659.53;;;3.65;100.00
25722;BME280;13578;53.450;15.496;2023-04-01T15:08:26;98661.91;;;3.58;100.00
25722;BME280;13578;53.450;15.496;2023-04-01T15:11:40;98677.69;;;3.64;100.00
25722;BME280;13578;53.450;15.496;2023-04-01T15:15:27;98669.78;;;3.61;100.00
25722;BME280;13578;53.450;15.496;2023-04-01T15:19:06;98676.72;;;3.65;100.00
25722;BME280;13578;53.450;15.496;2023-04-01T15:22:27;98686.09;;;3.73;100.00
25722;BME280;13578;53.450;15.496;2023-04-01T15:33:14;98695.72;;;3.65;100.00
25722;BME280;13578;53.450;15.496;2023-04-01T15:43:24;98716.03;;;3.60;100.00
25722;BME280;13578;53.450;15.496;2023-04-01T15:46:48;98722.19;;;3.50;100.00
25722;BME280;13578;53.450;15.496;2023-04-01T15:56:49;98745.25;;;3.45;100.00
25722;BME280;13578;53.450;15.496;2023-04-01T16:00:31;98746.94;;;3.46;100.00
25722;BME280;13578;53.450;15.496;2023-04-01T16:04:06;98738.09;;;3.55;100.00
25722;BME280;13578;53.450;15.496;2023-04-01T16:10:52;98760.25;;;3.38;100.00
25722;BME280;13578;53.450;15.496;2023-04-01T16:24:00;98788.59;;;3.09;100.00
25722;BME280;13578;53.450;15.496;2023-04-01T16:27:09;98794.50;;;3.03;100.00
25722;BME280;13578;53.450;15.496;2023-04-01T16:30:34;98798.63;;;2.96;100.00
25722;BME280;13578;53.450;15.496;2023-04-01T16:33:52;98805.72;;;3.10;100.00
25722;BME280;13578;53.450;15.496;2023-04-01T16:37:11;98824.66;;;2.98;100.00
25722;BME280;13578;53.450;15.496;2023-04-01T16:40:37;98816.44;;;2.87;100.00
25722;BME280;13578;53.450;15.496;2023-04-01T16:43:42;98817.94;;;2.91;100.00
25722;BME280;13578;53.450;15.496;2023-04-01T16:46:50;98834.22;;;2.91;100.00
25722;BME280;13578;53.450;15.496;2023-04-01T16:53:16;98846.78;;;2.92;100.00
25722;BME280;13578;53.450;15.496;2023-04-01T16:56:28;98837.13;;;2.88;100.00
25722;BME280;13578;53.450;15.496;2023-04-01T17:00:03;98843.34;;;2.77;100.00
25722;BME280;13578;53.450;15.496;2023-04-01T17:03:29;98857.22;;;2.73;100.00
25722;BME280;13578;53.450;15.496;2023-04-01T17:06:53;98860.06;;;2.71;100.00
25722;BME280;13578;53.450;15.496;2023-04-01T17:16:54;98875.47;;;2.70;100.00
25722;BME280;13578;53.450;15.496;2023-04-01T17:20:13;98893.44;;;2.72;100.00
25722;BME280;13578;53.450;15.496;2023-04-01T17:23:27;98897.00;;;2.72;100.00
25722;BME280;13578;53.450;15.496;2023-04-01T17:26:36;98908.16;;;2.80;100.00
25722;BME280;13578;53.450;15.496;2023-04-01T17:36:43;98910.69;;;2.70;100.00
25722;BME280;13578;53.450;15.496;2023-04-01T17:40:16;98913.78;;;2.77;100.00
25722;BME280;13578;53.450;15.496;2023-04-01T17:43:57;98934.63;;;2.77;100.00
25722;BME280;13578;53.450;15.496;2023-04-01T17:47:26;98928.44;;;2.75;100.00
25722;BME280;13578;53.450;15.496;2023-04-01T18:00:36;98949.78;;;2.66;100.00
25722;BME280;13578;53.450;15.496;2023-04-01T18:03:51;98956.81;;;2.69;100.00
25722;BME280;13578;53.450;15.496;2023-04-01T18:07:42;98962.66;;;2.50;100.00
25722;BME280;13578;53.450;15.496;2023-04-01T18:20:57;98992.06;;;2.56;100.00
25722;BME280;13578;53.450;15.496;2023-04-01T18:24:26;98993.13;;;2.53;100.00
25722;BME280;13578;53.450;15.496;2023-04-01T18:27:38;98993.56;;;2.60;100.00
25722;BME280;13578;53.450;15.496;2023-04-01T18:30:40;98999.75;;;2.62;100.00
25722;BME280;13578;53.450;15.496;2023-04-01T18:36:59;99013.16;;;2.51;100.00
25722;BME280;13578;53.450;15.496;2023-04-01T18:40:36;99008.41;;;2.54;100.00
25722;BME280;13578;53.450;15.496;2023-04-01T18:47:23;99030.94;;;2.42;100.00
25722;BME280;13578;53.450;15.496;2023-04-01T18:50:43;99031.91;;;2.41;100.00
25722;BME280;13578;53.450;15.496;2023-04-01T18:53:53;99048.47;;;2.36;100.00
25722;BME280;13578;53.450;15.496;2023-04-01T18:57:17;99032.56;;;2.45;100.00
25722;BME280;13578;53.450;15.496;2023-04-01T19:00:36;99036.72;;;2.23;100.00
25722;BME280;13578;53.450;15.496;2023-04-01T19:03:57;99050.06;;;2.26;100.00
25722;BME280;13578;53.450;15.496;2023-04-01T19:07:02;99044.53;;;2.28;100.00
25722;BME280;13578;53.450;15.496;2023-04-01T19:16:55;99050.81;;;2.15;100.00
25722;BME280;13578;53.450;15.496;2023-04-01T19:33:58;99097.31;;;2.08;100.00
25722;BME280;13578;53.450;15.496;2023-04-01T19:37:09;99091.03;;;2.07;100.00
25722;BME280;13578;53.450;15.496;2023-04-01T19:47:20;99103.50;;;2.10;100.00
25722;BME280;13578;53.450;15.496;2023-04-01T20:04:02;99134.25;;;2.09;100.00
25722;BME280;13578;53.450;15.496;2023-04-01T20:07:07;99143.75;;;2.01;100.00
25722;BME280;13578;53.450;15.496;2023-04-01T20:10:19;99150.78;;;2.04;100.00
25722;BME280;13578;53.450;15.496;2023-04-01T20:26:12;99177.09;;;1.87;100.00
25722;BME280;13578;53.450;15.496;2023-04-01T20:46:23;99210.63;;;1.70;100.00
25722;BME280;13578;53.450;15.496;2023-04-01T20:50:28;99211.53;;;1.71;100.00
25722;BME280;13578;53.450;15.496;2023-04-01T20:53:32;99215.09;;;1.71;100.00
25722;BME280;13578;53.450;15.496;2023-04-01T20:56:55;99218.06;;;1.67;100.00
25722;BME280;13578;53.450;15.496;2023-04-01T21:00:19;99229.19;;;1.62;100.00
25722;BME280;13578;53.450;15.496;2023-04-01T21:17:36;99234.03;;;1.57;100.00
25722;BME280;13578;53.450;15.496;2023-04-01T21:20:43;99249.28;;;1.58;100.00
25722;BME280;13578;53.450;15.496;2023-04-01T21:24:23;99247.38;;;1.60;100.00
25722;BME280;13578;53.450;15.496;2023-04-01T21:30:42;99249.00;;;1.63;100.00
25722;BME280;13578;53.450;15.496;2023-04-01T21:33:54;99266.69;;;1.68;100.00
25722;BME280;13578;53.450;15.496;2023-04-01T21:47:24;99274.19;;;1.49;100.00
25722;BME280;13578;53.450;15.496;2023-04-01T21:53:38;99282.50;;;1.46;100.00
25722;BME280;13578;53.450;15.496;2023-04-01T22:00:18;99293.34;;;1.60;100.00
25722;BME280;13578;53.450;15.496;2023-04-01T22:03:34;99302.88;;;1.51;100.00
25722;BME280;13578;53.450;15.496;2023-04-01T22:13:32;99312.47;;;1.57;100.00
25722;BME280;13578;53.450;15.496;2023-04-01T22:16:54;99305.00;;;1.46;100.00
25722;BME280;13578;53.450;15.496;2023-04-01T22:20:12;99318.06;;;1.54;100.00
25722;BME280;13578;53.450;15.496;2023-04-01T22:27:39;99327.91;;;1.55;100.00
25722;BME280;13578;53.450;15.496;2023-04-01T22:30:42;99331.13;;;1.62;100.00
25722;BME280;13578;53.450;15.496;2023-04-01T22:35:07;99336.53;;;1.62;100.00
25722;BME280;13578;53.450;15.496;2023-04-01T22:37:53;99335.94;;;1.56;100.00
25722;BME280;13578;53.450;15.496;2023-04-01T22:45:17;99344.47;;;1.65;100.00
25722;BME280;13578;53.450;15.496;2023-04-01T22:58:30;99363.31;;;1.66;100.00
25722;BME280;13578;53.450;15.496;2023-04-01T23:01:36;99364.53;;;1.61;100.00
25722;BME280;13578;53.450;15.496;2023-04-01T23:04:42;99364.31;;;1.49;100.00
25722;BME280;13578;53.450;15.496;2023-04-01T23:15:00;99380.13;;;1.41;100.00
25722;BME280;13578;53.450;15.496;2023-04-01T23:21:13;99392.75;;;1.40;100.00
25722;BME280;13578;53.450;15.496;2023-04-01T23:24:25;99390.06;;;1.40;100.00
25722;BME280;13578;53.450;15.496;2023-04-01T23:27:33;99397.91;;;1.45;100.00
25722;BME280;13578;53.450;15.496;2023-04-01T23:33:41;99400.81;;;1.42;100.00
25722;BME280;13578;53.450;15.496;2023-04-01T23:36:53;99404.09;;;1.47;100.00
25722;BME280;13578;53.450;15.496;2023-04-01T23:39:56;99407.06;;;1.42;100.00
25722;BME280;13578;53.450;15.496;2023-04-01T23:42:58;99417.72;;;1.46;100.00
25722;BME280;13578;53.450;15.496;2023-04-01T23:46:00;99421.88;;;1.51;100.00
25722;BME280;13578;53.450;15.496;2023-04-01T23:49:05;99418.59;;;1.46;100.00
25722;BME280;13578;53.450;15.496;2023-04-01T23:52:31;99424.88;;;1.47;100.00
25722;BME280;13578;53.450;15.496;2023-04-01T23:55:40;99429.22;;;1.49;100.00
25722;BME280;13578;53.450;15.496;2023-04-01T23:58:46;99432.19;;;1.45;100.00
